• Join FlightAware (Why Join?)
  • Login
  • US Flag 
09:02AM EDT


 

Airport Tracker/Info


-or-


 

Live Flight TrackerFlight Track Log ✈ DAL6066 ✈ 29-Oct-2013 ✈ KPHL - KJFK

Flight Track Log - Related Links

Times and Time Zones

All times are in EDT time to prevent confusion due to time zone crossing. See the DAL6066 flight status page for this flight to view local times or setup timezone preferences in your user account.

Time Position Orientation Groundspeed Altitude Reporting Facility
EDT Latitude Longitude Course Direction KTS MPH feet Rate Location/Type
01:01PM 39.8667 -75.2167 90° East 159 183 800  Level Philadelphia TRACON
01:02PM 39.8667 -75.1500 90° East 214 246 3,400 2,400 Climbing Philadelphia TRACON
01:03PM 39.8500 -75.0667 105° East 253 291 5,700 2,400 Climbing Philadelphia TRACON
01:05PM 40.0838 -74.8446 57° Northeast  Level Estimated
01:05PM 39.8222 -74.9089 103° East 295 339 9,900  Level New York Center
01:06PM 40.1365 -74.7451 90° East  Level Estimated
01:06PM 39.8072 -74.8000 100° East 300 345 11,600  Level New York Center
01:07PM 39.7969 -74.6722 96° East 327 376 11,900 -360 Climbing New York Center
01:08PM 39.8089 -74.5569 82° East 328 377 11,000 -480 Descending New York Center
01:09PM 39.8128 -74.4328 88° East 323 372 11,000  Level New York Center
01:10PM 39.7994 -74.3292 99° East 317 365 11,000  Level New York Center
01:11PM 39.8336 -74.2283 66° East 299 344 11,000  Level New York Center
01:12PM 39.8847 -74.1225 58° Northeast 299 344 11,000  Level New York Center
01:13PM 39.9125 -74.0183 71° East 304 350 11,000  Level New York Center
01:14PM 39.9339 -73.9219 74° East 304 350 11,000 -60 Level New York Center
01:15PM 40.0042 -73.8736 28° Northeast 274 315 10,900 -120 Descending New York Center
01:16PM 40.0828 -73.8094 32° Northeast 280 322 10,800 -900 Descending New York Center
01:17PM 40.1425 -73.7578 33° Northeast 286 329 9,200 -1,800 Descending New York Center
01:17PM 40.1833 -73.7167 38° Northeast 283 326 8,100 -1,920 Descending New York TRACON
01:18PM 40.2500 -73.6667 30° Northeast 269 310 6,100 -1,740 Descending New York TRACON
01:19PM 40.3167 -73.6167 30° Northeast 261 300 4,700 -1,320 Descending New York TRACON
01:20PM 40.3667 -73.5667 37° Northeast 256 295 3,700 -840 Descending New York TRACON
01:21PM 40.4167 -73.5000 45° Northeast 216 249 3,000 -360 Descending New York TRACON
01:22PM 40.4667 -73.4667 27° Northeast 201 231 3,000 -60 Level New York TRACON
01:23PM 40.5167 -73.4833 346° North 190 219 2,900 -60 Descending New York TRACON
01:24PM 40.5333 -73.5333 294° West 169 194 2,900  Level New York TRACON
01:25PM 40.5667 -73.5833 311° West 169 194 3,000 -300 Climbing New York TRACON
01:26PM 40.5833 -73.6333 294° West 172 198 2,400 -840 Descending New York TRACON
01:27PM 40.6167 -73.6833 311° West 149 171 1,500 -900 Descending New York TRACON
01:28PM 40.6333 -73.7333 294° West 140 161 700 -840 Descending New York TRACON